sensor_id;sensor_type;location;lat;lon;timestamp;temperature;humidity
12470;DHT22;36499;46.484;13.832;2023-08-12T00:02:16;14.00;99.90
12470;DHT22;36499;46.484;13.832;2023-08-12T00:04:43;14.00;99.90
12470;DHT22;36499;46.484;13.832;2023-08-12T00:07:12;14.10;99.90
12470;DHT22;36499;46.484;13.832;2023-08-12T00:09:39;14.00;99.90
12470;DHT22;36499;46.484;13.832;2023-08-12T00:12:06;14.00;99.90
12470;DHT22;36499;46.484;13.832;2023-08-12T00:14:33;13.90;99.90
12470;DHT22;36499;46.484;13.832;2023-08-12T00:17:04;13.90;99.90
12470;DHT22;36499;46.484;13.832;2023-08-12T00:19:31;13.90;99.90
12470;DHT22;36499;46.484;13.832;2023-08-12T00:21:58;13.80;99.90
12470;DHT22;36499;46.484;13.832;2023-08-12T00:24:25;13.70;99.90
12470;DHT22;36499;46.484;13.832;2023-08-12T00:26:52;13.60;99.90
12470;DHT22;36499;46.484;13.832;2023-08-12T00:29:19;13.60;99.90
12470;DHT22;36499;46.484;13.832;2023-08-12T00:31:46;13.50;99.90
12470;DHT22;36499;46.484;13.832;2023-08-12T00:34:15;13.60;99.90
12470;DHT22;36499;46.484;13.832;2023-08-12T00:36:43;13.60;99.90
12470;DHT22;36499;46.484;13.832;2023-08-12T00:39:10;13.70;99.90
12470;DHT22;36499;46.484;13.832;2023-08-12T00:41:37;13.70;99.90
12470;DHT22;36499;46.484;13.832;2023-08-12T00:44:04;13.70;99.90
12470;DHT22;36499;46.484;13.832;2023-08-12T00:46:32;13.70;99.90
12470;DHT22;36499;46.484;13.832;2023-08-12T00:48:59;13.80;99.90
12470;DHT22;36499;46.484;13.832;2023-08-12T00:51:28;13.80;99.90
12470;DHT22;36499;46.484;13.832;2023-08-12T00:53:57;13.80;99.90
12470;DHT22;36499;46.484;13.832;2023-08-12T00:56:26;13.80;99.90
12470;DHT22;36499;46.484;13.832;2023-08-12T00:58:53;13.70;99.90
12470;DHT22;36499;46.484;13.832;2023-08-12T01:01:20;13.70;99.90
12470;DHT22;36499;46.484;13.832;2023-08-12T01:03:48;13.70;99.90
12470;DHT22;36499;46.484;13.832;2023-08-12T01:06:15;13.70;99.90
12470;DHT22;36499;46.484;13.832;2023-08-12T01:08:43;13.70;99.90
12470;DHT22;36499;46.484;13.832;2023-08-12T01:11:16;13.70;99.90
12470;DHT22;36499;46.484;13.832;2023-08-12T01:13:58;13.70;99.90
12470;DHT22;36499;46.484;13.832;2023-08-12T01:16:31;13.70;99.90
12470;DHT22;36499;46.484;13.832;2023-08-12T01:19:05;13.70;99.90
12470;DHT22;36499;46.484;13.832;2023-08-12T01:21:37;13.70;99.90
12470;DHT22;36499;46.484;13.832;2023-08-12T01:24:09;13.70;99.90
12470;DHT22;36499;46.484;13.832;2023-08-12T01:26:37;13.70;99.90
12470;DHT22;36499;46.484;13.832;2023-08-12T01:29:04;13.70;99.90
12470;DHT22;36499;46.484;13.832;2023-08-12T01:31:34;13.70;99.90
12470;DHT22;36499;46.484;13.832;2023-08-12T01:34:14;13.70;99.90
12470;DHT22;36499;46.484;13.832;2023-08-12T01:36:53;13.70;99.90
12470;DHT22;36499;46.484;13.832;2023-08-12T01:39:24;13.70;99.90
12470;DHT22;36499;46.484;13.832;2023-08-12T01:41:53;13.70;99.90
12470;DHT22;36499;46.484;13.832;2023-08-12T01:44:22;13.70;99.90
12470;DHT22;36499;46.484;13.832;2023-08-12T01:46:49;13.70;99.90
12470;DHT22;36499;46.484;13.832;2023-08-12T01:49:16;13.70;99.90
12470;DHT22;36499;46.484;13.832;2023-08-12T01:51:43;13.70;99.90
12470;DHT22;36499;46.484;13.832;2023-08-12T01:54:10;13.60;99.90
12470;DHT22;36499;46.484;13.832;2023-08-12T01:56:39;13.60;99.90
12470;DHT22;36499;46.484;13.832;2023-08-12T01:59:06;13.60;99.90
12470;DHT22;36499;46.484;13.832;2023-08-12T02:01:33;13.60;99.90
12470;DHT22;36499;46.484;13.832;2023-08-12T02:04:00;13.70;99.90
12470;DHT22;36499;46.484;13.832;2023-08-12T02:06:27;13.60;99.90
12470;DHT22;36499;46.484;13.832;2023-08-12T02:08:54;13.40;99.90
12470;DHT22;36499;46.484;13.832;2023-08-12T02:11:21;13.40;99.90
12470;DHT22;36499;46.484;13.832;2023-08-12T02:13:49;13.40;99.90
12470;DHT22;36499;46.484;13.832;2023-08-12T02:16:16;13.40;99.90
12470;DHT22;36499;46.484;13.832;2023-08-12T02:18:43;13.40;99.90
12470;DHT22;36499;46.484;13.832;2023-08-12T02:21:10;13.50;99.90
12470;DHT22;36499;46.484;13.832;2023-08-12T02:23:37;13.50;99.90
12470;DHT22;36499;46.484;13.832;2023-08-12T02:26:05;13.50;99.90
12470;DHT22;36499;46.484;13.832;2023-08-12T02:28:32;13.40;99.90
12470;DHT22;36499;46.484;13.832;2023-08-12T02:31:00;13.40;99.90
12470;DHT22;36499;46.484;13.832;2023-08-12T02:33:28;13.40;99.90
12470;DHT22;36499;46.484;13.832;2023-08-12T02:35:55;13.30;99.90
12470;DHT22;36499;46.484;13.832;2023-08-12T02:38:22;13.20;99.90
12470;DHT22;36499;46.484;13.832;2023-08-12T02:40:49;13.20;99.90
12470;DHT22;36499;46.484;13.832;2023-08-12T02:43:17;13.10;99.90
12470;DHT22;36499;46.484;13.832;2023-08-12T02:45:44;13.10;99.90
12470;DHT22;36499;46.484;13.832;2023-08-12T02:48:13;13.10;99.90
12470;DHT22;36499;46.484;13.832;2023-08-12T02:50:40;13.10;99.90
12470;DHT22;36499;46.484;13.832;2023-08-12T02:53:07;13.10;99.90
12470;DHT22;36499;46.484;13.832;2023-08-12T02:55:34;13.00;99.90
12470;DHT22;36499;46.484;13.832;2023-08-12T02:58:03;13.00;99.90
12470;DHT22;36499;46.484;13.832;2023-08-12T03:00:31;12.90;99.90
12470;DHT22;36499;46.484;13.832;2023-08-12T03:02:58;12.90;99.90
12470;DHT22;36499;46.484;13.832;2023-08-12T03:05:26;12.90;99.90
12470;DHT22;36499;46.484;13.832;2023-08-12T03:07:53;12.90;99.90
12470;DHT22;36499;46.484;13.832;2023-08-12T03:10:20;12.90;99.90
12470;DHT22;36499;46.484;13.832;2023-08-12T03:12:47;12.80;99.90
12470;DHT22;36499;46.484;13.832;2023-08-12T03:15:14;12.80;99.90
12470;DHT22;36499;46.484;13.832;2023-08-12T03:17:41;12.80;99.90
12470;DHT22;36499;46.484;13.832;2023-08-12T03:20:09;12.80;99.90
12470;DHT22;36499;46.484;13.832;2023-08-12T03:22:38;12.70;99.90
12470;DHT22;36499;46.484;13.832;2023-08-12T03:25:06;12.70;99.90
12470;DHT22;36499;46.484;13.832;2023-08-12T03:27:33;12.70;99.90
12470;DHT22;36499;46.484;13.832;2023-08-12T03:30:01;12.70;99.90
12470;DHT22;36499;46.484;13.832;2023-08-12T03:32:29;12.70;99.90
12470;DHT22;36499;46.484;13.832;2023-08-12T03:34:56;12.60;99.90
12470;DHT22;36499;46.484;13.832;2023-08-12T03:37:23;12.50;99.90
12470;DHT22;36499;46.484;13.832;2023-08-12T03:39:51;12.40;99.90
12470;DHT22;36499;46.484;13.832;2023-08-12T03:42:18;12.40;99.90
12470;DHT22;36499;46.484;13.832;2023-08-12T03:44:45;12.40;99.90
12470;DHT22;36499;46.484;13.832;2023-08-12T03:47:12;12.40;99.90
12470;DHT22;36499;46.484;13.832;2023-08-12T03:49:39;12.40;99.90
12470;DHT22;36499;46.484;13.832;2023-08-12T03:52:06;12.40;99.90
12470;DHT22;36499;46.484;13.832;2023-08-12T03:54:33;12.40;99.90
12470;DHT22;36499;46.484;13.832;2023-08-12T03:57:02;12.40;99.90
12470;DHT22;36499;46.484;13.832;2023-08-12T03:59:29;12.40;99.90
12470;DHT22;36499;46.484;13.832;2023-08-12T04:01:56;12.40;99.90
12470;DHT22;36499;46.484;13.832;2023-08-12T04:04:23;12.40;99.90
12470;DHT22;36499;46.484;13.832;2023-08-12T04:06:50;12.30;99.90
12470;DHT22;36499;46.484;13.832;2023-08-12T04:09:18;12.30;99.90
12470;DHT22;36499;46.484;13.832;2023-08-12T04:11:45;12.30;99.90
12470;DHT22;36499;46.484;13.832;2023-08-12T04:14:14;12.30;99.90
12470;DHT22;36499;46.484;13.832;2023-08-12T04:16:41;12.30;99.90
12470;DHT22;36499;46.484;13.832;2023-08-12T04:19:08;12.30;99.90
12470;DHT22;36499;46.484;13.832;2023-08-12T04:21:35;12.30;99.90
12470;DHT22;36499;46.484;13.832;2023-08-12T04:24:02;12.30;99.90
12470;DHT22;36499;46.484;13.832;2023-08-12T04:26:30;12.30;99.90
12470;DHT22;36499;46.484;13.832;2023-08-12T04:28:57;12.40;99.90
12470;DHT22;36499;46.484;13.832;2023-08-12T04:31:25;12.40;99.90
12470;DHT22;36499;46.484;13.832;2023-08-12T04:33:52;12.30;99.90
12470;DHT22;36499;46.484;13.832;2023-08-12T04:36:19;12.30;99.90
12470;DHT22;36499;46.484;13.832;2023-08-12T04:38:46;12.30;99.90
12470;DHT22;36499;46.484;13.832;2023-08-12T04:41:13;12.30;99.90
12470;DHT22;36499;46.484;13.832;2023-08-12T04:43:41;12.30;99.90
12470;DHT22;36499;46.484;13.832;2023-08-12T04:46:08;12.30;99.90
12470;DHT22;36499;46.484;13.832;2023-08-12T04:48:36;12.30;99.90
12470;DHT22;36499;46.484;13.832;2023-08-12T04:51:03;12.40;99.90
12470;DHT22;36499;46.484;13.832;2023-08-12T04:53:31;12.40;99.90
12470;DHT22;36499;46.484;13.832;2023-08-12T04:55:58;12.40;99.90
12470;DHT22;36499;46.484;13.832;2023-08-12T04:58:25;12.50;99.90
12470;DHT22;36499;46.484;13.832;2023-08-12T05:00:52;12.60;99.90
12470;DHT22;36499;46.484;13.832;2023-08-12T05:03:19;12.60;99.90
12470;DHT22;36499;46.484;13.832;2023-08-12T05:05:50;12.60;99.90
12470;DHT22;36499;46.484;13.832;2023-08-12T05:08:18;12.60;99.90
12470;DHT22;36499;46.484;13.832;2023-08-12T05:10:47;12.60;99.90
12470;DHT22;36499;46.484;13.832;2023-08-12T05:13:14;12.60;99.90
12470;DHT22;36499;46.484;13.832;2023-08-12T05:15:44;12.60;99.90
12470;DHT22;36499;46.484;13.832;2023-08-12T05:18:11;12.60;99.90
12470;DHT22;36499;46.484;13.832;2023-08-12T05:20:39;12.70;99.90
12470;DHT22;36499;46.484;13.832;2023-08-12T05:23:08;12.80;99.90
12470;DHT22;36499;46.484;13.832;2023-08-12T05:25:35;12.90;99.90
12470;DHT22;36499;46.484;13.832;2023-08-12T05:28:03;13.00;99.90
12470;DHT22;36499;46.484;13.832;2023-08-12T05:30:30;13.10;99.90
12470;DHT22;36499;46.484;13.832;2023-08-12T05:32:57;13.30;99.90
12470;DHT22;36499;46.484;13.832;2023-08-12T05:35:24;13.40;99.90
12470;DHT22;36499;46.484;13.832;2023-08-12T05:37:52;13.60;99.90
12470;DHT22;36499;46.484;13.832;2023-08-12T05:40:20;13.70;99.90
12470;DHT22;36499;46.484;13.832;2023-08-12T05:42:47;13.80;99.90
12470;DHT22;36499;46.484;13.832;2023-08-12T05:45:14;14.00;99.90
12470;DHT22;36499;46.484;13.832;2023-08-12T05:47:41;14.10;99.90
12470;DHT22;36499;46.484;13.832;2023-08-12T05:50:09;14.20;99.90
12470;DHT22;36499;46.484;13.832;2023-08-12T05:56:19;14.50;99.90
12470;DHT22;36499;46.484;13.832;2023-08-12T05:58:46;14.60;99.90
12470;DHT22;36499;46.484;13.832;2023-08-12T06:01:13;14.80;99.90
12470;DHT22;36499;46.484;13.832;2023-08-12T06:03:40;14.90;99.90
12470;DHT22;36499;46.484;13.832;2023-08-12T06:06:07;15.00;99.90
12470;DHT22;36499;46.484;13.832;2023-08-12T06:08:34;15.10;99.90
12470;DHT22;36499;46.484;13.832;2023-08-12T06:11:01;15.30;99.90
12470;DHT22;36499;46.484;13.832;2023-08-12T06:13:29;15.40;99.90
12470;DHT22;36499;46.484;13.832;2023-08-12T06:15:56;15.50;99.90
12470;DHT22;36499;46.484;13.832;2023-08-12T06:18:23;15.70;99.90
12470;DHT22;36499;46.484;13.832;2023-08-12T06:20:50;15.90;99.90
12470;DHT22;36499;46.484;13.832;2023-08-12T06:23:17;16.00;99.90
12470;DHT22;36499;46.484;13.832;2023-08-12T06:25:44;16.10;99.90
12470;DHT22;36499;46.484;13.832;2023-08-12T06:28:11;16.30;99.90
12470;DHT22;36499;46.484;13.832;2023-08-12T06:30:40;16.40;99.90
12470;DHT22;36499;46.484;13.832;2023-08-12T06:33:11;16.50;99.90
12470;DHT22;36499;46.484;13.832;2023-08-12T06:35:38;16.70;99.90
12470;DHT22;36499;46.484;13.832;2023-08-12T06:38:05;16.80;99.90
12470;DHT22;36499;46.484;13.832;2023-08-12T06:40:32;16.90;99.90
12470;DHT22;36499;46.484;13.832;2023-08-12T06:42:59;17.10;99.90
12470;DHT22;36499;46.484;13.832;2023-08-12T06:45:26;17.20;99.90
12470;DHT22;36499;46.484;13.832;2023-08-12T06:47:55;17.40;99.90
12470;DHT22;36499;46.484;13.832;2023-08-12T06:50:22;17.60;99.90
12470;DHT22;36499;46.484;13.832;2023-08-12T06:52:49;17.80;99.90
12470;DHT22;36499;46.484;13.832;2023-08-12T06:55:16;17.90;99.90
12470;DHT22;36499;46.484;13.832;2023-08-12T06:57:43;18.10;99.90
12470;DHT22;36499;46.484;13.832;2023-08-12T07:00:11;18.30;99.90
12470;DHT22;36499;46.484;13.832;2023-08-12T07:02:39;18.40;99.90
12470;DHT22;36499;46.484;13.832;2023-08-12T07:05:09;18.60;99.90
12470;DHT22;36499;46.484;13.832;2023-08-12T07:07:36;18.70;99.90
12470;DHT22;36499;46.484;13.832;2023-08-12T07:10:04;18.80;99.90
12470;DHT22;36499;46.484;13.832;2023-08-12T07:12:32;18.90;99.90
12470;DHT22;36499;46.484;13.832;2023-08-12T07:14:59;19.10;99.90
12470;DHT22;36499;46.484;13.832;2023-08-12T07:17:26;19.20;99.90
12470;DHT22;36499;46.484;13.832;2023-08-12T07:19:53;19.30;99.90
12470;DHT22;36499;46.484;13.832;2023-08-12T07:22:22;19.50;99.90
12470;DHT22;36499;46.484;13.832;2023-08-12T07:24:49;19.60;99.90
12470;DHT22;36499;46.484;13.832;2023-08-12T07:27:18;19.80;99.90
12470;DHT22;36499;46.484;13.832;2023-08-12T07:29:45;20.00;99.90
12470;DHT22;36499;46.484;13.832;2023-08-12T07:32:13;20.20;99.90
12470;DHT22;36499;46.484;13.832;2023-08-12T07:34:40;20.30;99.90
12470;DHT22;36499;46.484;13.832;2023-08-12T07:37:07;20.40;99.90
12470;DHT22;36499;46.484;13.832;2023-08-12T07:39:35;20.50;99.90
12470;DHT22;36499;46.484;13.832;2023-08-12T07:42:02;20.60;99.90
12470;DHT22;36499;46.484;13.832;2023-08-12T07:44:30;20.80;99.90
12470;DHT22;36499;46.484;13.832;2023-08-12T07:46:57;20.90;99.90
12470;DHT22;36499;46.484;13.832;2023-08-12T07:49:24;21.00;99.90
12470;DHT22;36499;46.484;13.832;2023-08-12T07:51:51;21.10;99.90
12470;DHT22;36499;46.484;13.832;2023-08-12T07:54:18;21.30;99.90
12470;DHT22;36499;46.484;13.832;2023-08-12T07:56:46;21.50;99.90
12470;DHT22;36499;46.484;13.832;2023-08-12T07:59:13;21.60;99.90
12470;DHT22;36499;46.484;13.832;2023-08-12T08:01:41;21.70;99.90
12470;DHT22;36499;46.484;13.832;2023-08-12T08:04:08;21.80;99.90
12470;DHT22;36499;46.484;13.832;2023-08-12T08:06:35;21.90;99.90
12470;DHT22;36499;46.484;13.832;2023-08-12T08:09:02;21.90;99.90
12470;DHT22;36499;46.484;13.832;2023-08-12T08:11:30;21.90;99.90
12470;DHT22;36499;46.484;13.832;2023-08-12T08:14:01;21.90;99.90
12470;DHT22;36499;46.484;13.832;2023-08-12T08:16:28;22.10;99.90
12470;DHT22;36499;46.484;13.832;2023-08-12T08:18:55;22.10;99.90
12470;DHT22;36499;46.484;13.832;2023-08-12T08:21:22;22.30;99.90
12470;DHT22;36499;46.484;13.832;2023-08-12T08:23:50;22.50;99.90
12470;DHT22;36499;46.484;13.832;2023-08-12T08:26:17;22.60;99.90
12470;DHT22;36499;46.484;13.832;2023-08-12T08:28:44;22.70;99.90
12470;DHT22;36499;46.484;13.832;2023-08-12T08:31:12;22.80;99.90
12470;DHT22;36499;46.484;13.832;2023-08-12T08:33:39;22.90;99.90
12470;DHT22;36499;46.484;13.832;2023-08-12T08:36:06;22.90;99.90
12470;DHT22;36499;46.484;13.832;2023-08-12T08:38:33;23.00;99.90
12470;DHT22;36499;46.484;13.832;2023-08-12T08:41:00;23.10;99.90
12470;DHT22;36499;46.484;13.832;2023-08-12T08:43:32;23.10;99.90
12470;DHT22;36499;46.484;13.832;2023-08-12T08:46:02;23.10;99.90
12470;DHT22;36499;46.484;13.832;2023-08-12T08:48:32;23.20;99.90
12470;DHT22;36499;46.484;13.832;2023-08-12T08:51:00;23.30;99.90
12470;DHT22;36499;46.484;13.832;2023-08-12T08:53:29;23.30;99.90
12470;DHT22;36499;46.484;13.832;2023-08-12T08:55:56;23.30;99.90
12470;DHT22;36499;46.484;13.832;2023-08-12T08:58:24;23.40;99.90
12470;DHT22;36499;46.484;13.832;2023-08-12T09:00:51;23.50;99.90
12470;DHT22;36499;46.484;13.832;2023-08-12T09:03:19;23.50;99.90
12470;DHT22;36499;46.484;13.832;2023-08-12T09:05:48;23.60;99.90
12470;DHT22;36499;46.484;13.832;2023-08-12T09:08:17;23.70;99.90
12470;DHT22;36499;46.484;13.832;2023-08-12T09:10:46;23.70;99.90
12470;DHT22;36499;46.484;13.832;2023-08-12T09:13:14;23.90;99.90
12470;DHT22;36499;46.484;13.832;2023-08-12T09:15:43;24.00;99.90
12470;DHT22;36499;46.484;13.832;2023-08-12T09:18:11;24.00;99.90
12470;DHT22;36499;46.484;13.832;2023-08-12T09:20:38;24.00;99.90
12470;DHT22;36499;46.484;13.832;2023-08-12T09:23:06;24.00;99.90
12470;DHT22;36499;46.484;13.832;2023-08-12T09:25:41;24.10;99.90
12470;DHT22;36499;46.484;13.832;2023-08-12T09:28:10;24.10;99.90
12470;DHT22;36499;46.484;13.832;2023-08-12T09:30:38;24.20;99.90
12470;DHT22;36499;46.484;13.832;2023-08-12T09:33:07;24.10;99.90
12470;DHT22;36499;46.484;13.832;2023-08-12T09:35:38;24.30;99.90
12470;DHT22;36499;46.484;13.832;2023-08-12T09:38:10;24.30;99.90
12470;DHT22;36499;46.484;13.832;2023-08-12T09:40:39;24.50;99.90
12470;DHT22;36499;46.484;13.832;2023-08-12T09:43:06;24.70;99.90
12470;DHT22;36499;46.484;13.832;2023-08-12T09:45:34;24.80;99.90
12470;DHT22;36499;46.484;13.832;2023-08-12T09:48:02;24.80;99.90
12470;DHT22;36499;46.484;13.832;2023-08-12T09:50:29;24.90;99.90
12470;DHT22;36499;46.484;13.832;2023-08-12T09:52:56;25.00;99.90
12470;DHT22;36499;46.484;13.832;2023-08-12T09:55:25;25.20;99.90
12470;DHT22;36499;46.484;13.832;2023-08-12T09:57:53;25.30;99.90
12470;DHT22;36499;46.484;13.832;2023-08-12T10:00:23;25.40;99.90
12470;DHT22;36499;46.484;13.832;2023-08-12T10:02:52;25.50;99.90
12470;DHT22;36499;46.484;13.832;2023-08-12T10:05:22;25.50;99.90
12470;DHT22;36499;46.484;13.832;2023-08-12T10:07:52;25.50;99.90
12470;DHT22;36499;46.484;13.832;2023-08-12T10:10:20;25.50;99.90
12470;DHT22;36499;46.484;13.832;2023-08-12T10:12:50;25.50;99.90
12470;DHT22;36499;46.484;13.832;2023-08-12T10:15:19;25.60;99.90
12470;DHT22;36499;46.484;13.832;2023-08-12T10:17:48;25.70;99.90
12470;DHT22;36499;46.484;13.832;2023-08-12T10:20:20;25.80;99.90
12470;DHT22;36499;46.484;13.832;2023-08-12T10:22:49;25.70;99.90
12470;DHT22;36499;46.484;13.832;2023-08-12T10:25:19;25.70;99.90
12470;DHT22;36499;46.484;13.832;2023-08-12T10:27:49;25.80;99.90
12470;DHT22;36499;46.484;13.832;2023-08-12T10:30:16;25.80;99.90
12470;DHT22;36499;46.484;13.832;2023-08-12T10:32:43;26.00;99.90
12470;DHT22;36499;46.484;13.832;2023-08-12T10:35:13;26.00;99.90
12470;DHT22;36499;46.484;13.832;2023-08-12T10:37:40;26.10;99.90
12470;DHT22;36499;46.484;13.832;2023-08-12T10:40:20;26.10;99.90
12470;DHT22;36499;46.484;13.832;2023-08-12T10:42:50;26.10;99.90
12470;DHT22;36499;46.484;13.832;2023-08-12T10:45:18;26.20;99.90
12470;DHT22;36499;46.484;13.832;2023-08-12T10:47:49;26.20;99.90
12470;DHT22;36499;46.484;13.832;2023-08-12T10:50:22;26.20;99.90
12470;DHT22;36499;46.484;13.832;2023-08-12T10:52:52;26.20;99.90
12470;DHT22;36499;46.484;13.832;2023-08-12T10:55:21;26.20;99.90
12470;DHT22;36499;46.484;13.832;2023-08-12T10:57:52;26.10;99.90
12470;DHT22;36499;46.484;13.832;2023-08-12T11:00:23;26.20;99.90
12470;DHT22;36499;46.484;13.832;2023-08-12T11:02:53;26.10;99.90
12470;DHT22;36499;46.484;13.832;2023-08-12T11:05:22;26.20;99.90
12470;DHT22;36499;46.484;13.832;2023-08-12T11:07:56;26.20;99.90
12470;DHT22;36499;46.484;13.832;2023-08-12T11:10:28;26.20;99.90
12470;DHT22;36499;46.484;13.832;2023-08-12T11:12:59;26.20;99.90
12470;DHT22;36499;46.484;13.832;2023-08-12T11:15:32;26.20;99.90
12470;DHT22;36499;46.484;13.832;2023-08-12T11:18:03;26.20;99.90
12470;DHT22;36499;46.484;13.832;2023-08-12T11:20:32;26.20;99.90
12470;DHT22;36499;46.484;13.832;2023-08-12T11:23:00;26.30;99.90
12470;DHT22;36499;46.484;13.832;2023-08-12T11:25:28;26.40;99.90
12470;DHT22;36499;46.484;13.832;2023-08-12T11:27:57;26.50;99.90
12470;DHT22;36499;46.484;13.832;2023-08-12T11:30:26;26.50;99.90
12470;DHT22;36499;46.484;13.832;2023-08-12T11:32:54;26.50;99.90
12470;DHT22;36499;46.484;13.832;2023-08-12T11:35:23;26.50;99.90
12470;DHT22;36499;46.484;13.832;2023-08-12T11:37:52;26.60;99.90
12470;DHT22;36499;46.484;13.832;2023-08-12T11:40:23;26.80;99.90
12470;DHT22;36499;46.484;13.832;2023-08-12T11:42:52;26.90;99.90
12470;DHT22;36499;46.484;13.832;2023-08-12T11:45:22;26.80;99.90
12470;DHT22;36499;46.484;13.832;2023-08-12T11:47:51;26.90;99.90
12470;DHT22;36499;46.484;13.832;2023-08-12T11:50:19;26.90;99.90
12470;DHT22;36499;46.484;13.832;2023-08-12T11:52:48;26.90;99.90
12470;DHT22;36499;46.484;13.832;2023-08-12T11:55:16;26.80;99.90
12470;DHT22;36499;46.484;13.832;2023-08-12T11:57:44;26.80;99.90
12470;DHT22;36499;46.484;13.832;2023-08-12T12:00:13;26.90;99.90
12470;DHT22;36499;46.484;13.832;2023-08-12T12:02:47;27.00;99.90
12470;DHT22;36499;46.484;13.832;2023-08-12T12:05:17;27.10;99.90
12470;DHT22;36499;46.484;13.832;2023-08-12T12:07:45;27.10;99.90
12470;DHT22;36499;46.484;13.832;2023-08-12T12:10:13;27.10;99.90
12470;DHT22;36499;46.484;13.832;2023-08-12T12:12:44;27.10;99.90
12470;DHT22;36499;46.484;13.832;2023-08-12T12:15:13;27.10;99.90
12470;DHT22;36499;46.484;13.832;2023-08-12T12:17:45;27.30;99.90
12470;DHT22;36499;46.484;13.832;2023-08-12T12:20:12;27.30;99.90
12470;DHT22;36499;46.484;13.832;2023-08-12T12:22:42;27.30;99.90
12470;DHT22;36499;46.484;13.832;2023-08-12T12:25:11;27.40;99.90
12470;DHT22;36499;46.484;13.832;2023-08-12T12:27:40;27.40;99.90
12470;DHT22;36499;46.484;13.832;2023-08-12T12:30:10;27.40;99.90
12470;DHT22;36499;46.484;13.832;2023-08-12T12:32:38;27.40;99.90
12470;DHT22;36499;46.484;13.832;2023-08-12T12:35:07;27.50;99.90
12470;DHT22;36499;46.484;13.832;2023-08-12T12:37:35;27.50;99.90
12470;DHT22;36499;46.484;13.832;2023-08-12T12:40:03;27.50;99.90
12470;DHT22;36499;46.484;13.832;2023-08-12T12:42:30;27.50;99.90
12470;DHT22;36499;46.484;13.832;2023-08-12T12:44:57;27.50;99.90
12470;DHT22;36499;46.484;13.832;2023-08-12T12:47:25;27.50;99.90
12470;DHT22;36499;46.484;13.832;2023-08-12T12:49:52;27.50;99.90
12470;DHT22;36499;46.484;13.832;2023-08-12T12:52:20;27.50;99.90
12470;DHT22;36499;46.484;13.832;2023-08-12T12:54:47;27.50;99.90
12470;DHT22;36499;46.484;13.832;2023-08-12T12:57:14;27.50;99.90
12470;DHT22;36499;46.484;13.832;2023-08-12T12:59:41;27.50;99.90
12470;DHT22;36499;46.484;13.832;2023-08-12T13:02:08;27.40;99.90
12470;DHT22;36499;46.484;13.832;2023-08-12T13:04:35;27.50;99.90
12470;DHT22;36499;46.484;13.832;2023-08-12T13:07:02;27.60;99.90
12470;DHT22;36499;46.484;13.832;2023-08-12T13:09:31;27.50;99.90
12470;DHT22;36499;46.484;13.832;2023-08-12T13:11:58;27.50;99.90
12470;DHT22;36499;46.484;13.832;2023-08-12T13:14:25;27.40;99.90
12470;DHT22;36499;46.484;13.832;2023-08-12T13:16:54;27.50;99.90
12470;DHT22;36499;46.484;13.832;2023-08-12T13:19:21;27.50;99.90
12470;DHT22;36499;46.484;13.832;2023-08-12T13:21:48;27.60;99.90
12470;DHT22;36499;46.484;13.832;2023-08-12T13:24:15;27.70;99.90
12470;DHT22;36499;46.484;13.832;2023-08-12T13:26:43;27.70;99.90
12470;DHT22;36499;46.484;13.832;2023-08-12T13:29:10;27.60;99.90
12470;DHT22;36499;46.484;13.832;2023-08-12T13:31:38;27.50;99.90
12470;DHT22;36499;46.484;13.832;2023-08-12T13:34:05;27.50;99.90
12470;DHT22;36499;46.484;13.832;2023-08-12T13:36:33;27.50;99.90
12470;DHT22;36499;46.484;13.832;2023-08-12T13:39:00;27.50;99.90
12470;DHT22;36499;46.484;13.832;2023-08-12T13:41:27;27.50;99.90
12470;DHT22;36499;46.484;13.832;2023-08-12T13:43:55;27.60;99.90
12470;DHT22;36499;46.484;13.832;2023-08-12T13:46:22;27.60;99.90
12470;DHT22;36499;46.484;13.832;2023-08-12T13:48:49;27.70;99.90
12470;DHT22;36499;46.484;13.832;2023-08-12T13:51:16;27.70;99.90
12470;DHT22;36499;46.484;13.832;2023-08-12T13:53:43;27.70;99.90
12470;DHT22;36499;46.484;13.832;2023-08-12T13:56:10;27.70;99.90
12470;DHT22;36499;46.484;13.832;2023-08-12T13:58:38;27.60;99.90
12470;DHT22;36499;46.484;13.832;2023-08-12T14:01:06;27.70;99.90
12470;DHT22;36499;46.484;13.832;2023-08-12T14:03:34;27.60;99.90
12470;DHT22;36499;46.484;13.832;2023-08-12T14:06:01;27.70;99.90
12470;DHT22;36499;46.484;13.832;2023-08-12T14:08:28;27.90;99.90
12470;DHT22;36499;46.484;13.832;2023-08-12T14:10:55;27.70;99.90
12470;DHT22;36499;46.484;13.832;2023-08-12T14:13:22;27.60;99.90
12470;DHT22;36499;46.484;13.832;2023-08-12T14:15:49;27.60;99.90
12470;DHT22;36499;46.484;13.832;2023-08-12T14:18:17;27.70;99.90
12470;DHT22;36499;46.484;13.832;2023-08-12T14:20:44;27.80;99.90
12470;DHT22;36499;46.484;13.832;2023-08-12T14:23:11;27.90;99.90
12470;DHT22;36499;46.484;13.832;2023-08-12T14:25:39;27.90;99.90
12470;DHT22;36499;46.484;13.832;2023-08-12T14:28:06;27.70;99.90
12470;DHT22;36499;46.484;13.832;2023-08-12T14:30:33;27.70;99.90
12470;DHT22;36499;46.484;13.832;2023-08-12T14:33:00;27.60;99.90
12470;DHT22;36499;46.484;13.832;2023-08-12T14:35:28;27.60;99.90
12470;DHT22;36499;46.484;13.832;2023-08-12T14:37:55;27.70;99.90
12470;DHT22;36499;46.484;13.832;2023-08-12T14:40:22;27.70;99.90
12470;DHT22;36499;46.484;13.832;2023-08-12T14:42:50;27.70;99.90
12470;DHT22;36499;46.484;13.832;2023-08-12T14:45:17;27.70;99.90
12470;DHT22;36499;46.484;13.832;2023-08-12T14:47:44;27.70;99.90
12470;DHT22;36499;46.484;13.832;2023-08-12T14:50:11;27.70;99.90
12470;DHT22;36499;46.484;13.832;2023-08-12T14:52:40;27.70;99.90
12470;DHT22;36499;46.484;13.832;2023-08-12T14:55:08;27.60;99.80
12470;DHT22;36499;46.484;13.832;2023-08-12T14:57:35;27.60;99.90
12470;DHT22;36499;46.484;13.832;2023-08-12T15:00:03;27.60;99.90
12470;DHT22;36499;46.484;13.832;2023-08-12T15:02:32;27.70;99.90
12470;DHT22;36499;46.484;13.832;2023-08-12T15:04:59;27.70;99.90
12470;DHT22;36499;46.484;13.832;2023-08-12T15:07:27;27.80;99.90
12470;DHT22;36499;46.484;13.832;2023-08-12T15:09:55;27.80;99.90
12470;DHT22;36499;46.484;13.832;2023-08-12T15:12:24;27.70;99.90
12470;DHT22;36499;46.484;13.832;2023-08-12T15:14:52;27.60;99.90
12470;DHT22;36499;46.484;13.832;2023-08-12T15:17:19;27.50;99.90
12470;DHT22;36499;46.484;13.832;2023-08-12T15:19:46;27.50;99.90
12470;DHT22;36499;46.484;13.832;2023-08-12T15:22:14;27.50;99.90
12470;DHT22;36499;46.484;13.832;2023-08-12T15:24:41;27.50;99.90